createdAt,value
2023-04-27T00:03:18.544Z,18.3
2023-04-27T00:09:13.249Z,18.3
2023-04-27T00:15:04.121Z,18.3
2023-04-27T00:20:55.571Z,18.3
2023-04-27T00:26:32.410Z,18.2
2023-04-27T00:32:23.336Z,18.2
2023-04-27T00:38:14.195Z,18.1
2023-04-27T00:44:05.659Z,18.1
2023-04-27T00:49:58.885Z,18.1
2023-04-27T00:55:49.661Z,18
2023-04-27T01:01:26.580Z,18
2023-04-27T01:07:19.970Z,17.9
2023-04-27T01:13:11.498Z,17.9
2023-04-27T01:19:03.748Z,17.9
2023-04-27T01:24:56.774Z,17.8
2023-04-27T01:30:48.329Z,17.8
2023-04-27T01:36:41.166Z,17.7
2023-04-27T01:42:32.614Z,17.7
2023-04-27T01:48:23.827Z,17.7
2023-04-27T01:54:15.977Z,17.6
2023-04-27T02:00:06.508Z,17.6
2023-04-27T02:05:43.957Z,17.6
2023-04-27T02:11:20.597Z,17.6
2023-04-27T02:17:12.597Z,17.3
2023-04-27T02:23:03.936Z,17.1
2023-04-27T02:28:58.795Z,17.1
2023-04-27T02:34:53.315Z,17.6
2023-04-27T02:40:44.006Z,17.6
2023-04-27T02:46:20.317Z,17.8
2023-04-27T02:52:12.370Z,17.8
2023-04-27T02:58:03.577Z,18
2023-04-27T03:03:57.312Z,17.9
2023-04-27T03:09:50.286Z,18
2023-04-27T03:15:43.292Z,17.9
2023-04-27T03:21:35.498Z,18
2023-04-27T03:27:11.405Z,18
2023-04-27T03:32:47.916Z,17.9
2023-04-27T03:38:24.099Z,18
2023-04-27T03:44:15.557Z,17.9
2023-04-27T03:50:06.925Z,17.9
2023-04-27T03:55:58.489Z,17.9
2023-04-27T04:01:49.726Z,18
2023-04-27T04:07:43.102Z,17.9
2023-04-27T04:13:34.949Z,17.9
2023-04-27T04:19:26.223Z,17.9
2023-04-27T04:25:17.582Z,17.9
2023-04-27T04:30:54.625Z,17.9
2023-04-27T04:36:30.954Z,17.8
2023-04-27T04:42:09.608Z,17.9
2023-04-27T04:48:02.401Z,17.8
2023-04-27T04:53:56.173Z,17.7
2023-04-27T04:59:49.529Z,17.6
2023-04-27T05:05:43.445Z,17.4
2023-04-27T05:11:37.990Z,17.4
2023-04-27T05:17:31.033Z,17.3
2023-04-27T05:23:09.053Z,17.2
2023-04-27T05:29:00.147Z,17.1
2023-04-27T05:34:51.883Z,16.9
2023-04-27T05:40:28.298Z,16.8
2023-04-27T05:45:49.019Z,16.8
2023-04-27T05:51:26.101Z,16.7
2023-04-27T05:57:02.550Z,16.6
2023-04-27T06:02:48.107Z,16.5
2023-04-27T06:08:27.372Z,16.4
2023-04-27T06:14:03.618Z,16.4
2023-04-27T06:19:40.550Z,16.4
2023-04-27T06:25:16.618Z,16.4
2023-04-27T06:31:08.500Z,16.3
2023-04-27T06:37:00.324Z,16.4
2023-04-27T06:42:52.857Z,16.3
2023-04-27T06:48:46.278Z,16.3
2023-04-27T06:54:37.538Z,16.3
2023-04-27T07:00:31.071Z,16.3
2023-04-27T07:06:24.392Z,16.2
2023-04-27T07:12:28.363Z,16.2
2023-04-27T07:18:19.607Z,16.2
2023-04-27T07:24:13.463Z,16.2
2023-04-27T07:30:17.232Z,16.2
2023-04-27T07:36:24.353Z,16.1
2023-04-27T07:42:17.050Z,16.1
2023-04-27T07:48:08.652Z,16.1
2023-04-27T07:54:00.504Z,16.1
2023-04-27T07:59:51.859Z,16.1
2023-04-27T08:06:04.009Z,16.1
2023-04-27T08:11:47.620Z,16.1
2023-04-27T08:17:24.650Z,16
2023-04-27T08:22:29.274Z,16
2023-04-27T08:27:33.870Z,16
2023-04-27T08:33:09.443Z,16
2023-04-27T08:38:14.602Z,16
2023-04-27T08:43:50.012Z,16
2023-04-27T08:49:21.669Z,16
2023-04-27T08:54:57.865Z,16
2023-04-27T09:00:52.605Z,16
2023-04-27T09:06:59.604Z,16
2023-04-27T09:12:50.420Z,16
2023-04-27T09:18:41.465Z,16
2023-04-27T09:23:47.305Z,16
2023-04-27T09:29:38.562Z,16
2023-04-27T09:35:30.521Z,15.9
2023-04-27T09:41:22.185Z,15.9
2023-04-27T09:47:15.317Z,15.9
2023-04-27T09:52:51.268Z,15.9
2023-04-27T09:58:42.633Z,15.9
2023-04-27T10:05:05.559Z,15.9
2023-04-27T10:10:56.492Z,15.9
2023-04-27T10:16:48.395Z,15.9
2023-04-27T10:22:42.493Z,15.9
2023-04-27T10:28:35.242Z,15.9
2023-04-27T10:34:27.110Z,15.9
2023-04-27T10:40:33.866Z,16
2023-04-27T10:46:25.114Z,15.9
2023-04-27T10:52:16.930Z,16
2023-04-27T10:57:52.804Z,16
2023-04-27T11:03:38.451Z,16
2023-04-27T11:09:32.505Z,16
2023-04-27T11:15:07.940Z,15.9
2023-04-27T11:20:59.111Z,15.9
2023-04-27T11:26:50.918Z,15.9
2023-04-27T11:32:43.196Z,15.9
2023-04-27T11:38:33.696Z,16
2023-04-27T11:43:57.282Z,16
2023-04-27T11:49:33.567Z,16
2023-04-27T11:54:56.996Z,16
2023-04-27T12:00:18.201Z,16.1
2023-04-27T12:05:49.802Z,16
2023-04-27T12:11:35.470Z,16.1
2023-04-27T12:16:57.088Z,16.1
2023-04-27T12:22:33.701Z,16.1
2023-04-27T12:28:27.771Z,16.1
2023-04-27T12:33:49.611Z,16.1
2023-04-27T12:39:41.643Z,16.1
2023-04-27T12:45:32.500Z,16.1
2023-04-27T12:51:53.180Z,16.1
2023-04-27T12:57:59.809Z,16.1
2023-04-27T13:03:53.924Z,16.1
2023-04-27T13:09:46.960Z,16.1
2023-04-27T13:15:39.199Z,16.1
2023-04-27T13:21:36.785Z,16.1
2023-04-27T13:27:29.546Z,16.1
2023-04-27T13:33:35.936Z,16.2
2023-04-27T13:39:26.979Z,16.1
2023-04-27T13:45:19.352Z,16.1
2023-04-27T13:50:56.039Z,16.2
2023-04-27T13:56:47.145Z,16.2
2023-04-27T14:02:39.522Z,16.2
2023-04-27T14:08:32.887Z,16.2
2023-04-27T14:14:39.524Z,16.2
2023-04-27T14:20:45.228Z,16.2
2023-04-27T14:26:36.731Z,16.2
2023-04-27T14:32:27.489Z,16.2
2023-04-27T14:38:19.914Z,16.2
2023-04-27T14:44:11.302Z,16.2
2023-04-27T14:50:28.328Z,16.2
2023-04-27T14:56:20.361Z,16.2
2023-04-27T15:02:11.849Z,16.3
2023-04-27T15:08:04.808Z,22.1
2023-04-27T15:13:57.044Z,25
2023-04-27T15:19:49.225Z,27.1
2023-04-27T15:25:41.228Z,28.1
2023-04-27T15:31:35.352Z,27.4
2023-04-27T15:37:27.058Z,26.6
2023-04-27T15:43:18.700Z,26
2023-04-27T15:48:56.177Z,25.4
2023-04-27T15:55:00.609Z,24.9
2023-04-27T16:00:54.966Z,24.4
2023-04-27T16:06:48.438Z,24.1
2023-04-27T16:12:43.365Z,23.7
2023-04-27T16:18:19.677Z,23.3
2023-04-27T16:24:11.592Z,23.1
2023-04-27T16:30:03.132Z,22.7
2023-04-27T16:35:54.655Z,22.4
2023-04-27T16:41:31.152Z,22.3
2023-04-27T16:47:23.766Z,22.1
2023-04-27T16:53:15.754Z,22
2023-04-27T16:58:52.318Z,21.8
2023-04-27T17:04:57.734Z,21.8
2023-04-27T17:10:50.597Z,21.6
2023-04-27T17:16:43.001Z,21.4
2023-04-27T17:22:37.784Z,21.2
2023-04-27T17:28:29.517Z,20.9
2023-04-27T17:34:23.012Z,20.8
2023-04-27T17:40:18.540Z,20.7
2023-04-27T17:46:09.684Z,20.6
2023-04-27T17:52:01.923Z,20.6
2023-04-27T17:57:54.291Z,20.8
2023-04-27T18:03:16.063Z,21
2023-04-27T18:08:38.624Z,21.2
2023-04-27T18:14:17.074Z,21.3
2023-04-27T18:20:25.671Z,21.4
2023-04-27T18:26:18.335Z,21.3
2023-04-27T18:32:12.469Z,21.3
2023-04-27T18:38:04.675Z,21.3
2023-04-27T18:43:56.387Z,21.2
2023-04-27T18:55:25.071Z,21
2023-04-27T19:01:17.877Z,21
2023-04-27T19:07:30.809Z,20.9
2023-04-27T19:13:27.010Z,20.8
2023-04-27T19:19:31.022Z,20.6
2023-04-27T19:25:24.759Z,20.4
2023-04-27T19:31:33.737Z,20.3
2023-04-27T19:37:30.468Z,20.2
2023-04-27T19:43:11.110Z,20.1
2023-04-27T19:49:04.178Z,20
2023-04-27T19:54:57.616Z,19.9
2023-04-27T20:00:50.818Z,19.8
2023-04-27T20:06:48.561Z,19.6
2023-04-27T20:12:58.125Z,19.4
2023-04-27T20:18:36.428Z,19.3
2023-04-27T20:24:32.295Z,19.2
2023-04-27T20:30:10.298Z,19.1
2023-04-27T20:36:13.975Z,18.9
2023-04-27T20:42:10.347Z,18.8
2023-04-27T20:53:37.377Z,18.6
2023-04-27T20:59:29.428Z,18.6
2023-04-27T21:05:23.425Z,18.4
2023-04-27T21:11:17.444Z,18.4
2023-04-27T21:17:10.154Z,18.3
2023-04-27T21:23:15.475Z,18.3
2023-04-27T21:29:16.250Z,18.2
2023-04-27T21:35:11.049Z,18.1
2023-04-27T21:41:02.947Z,18
2023-04-27T21:46:54.883Z,17.9
2023-04-27T21:52:30.960Z,17.9
2023-04-27T21:58:26.626Z,17.8
2023-04-27T22:04:19.160Z,17.8
2023-04-27T22:09:58.104Z,17.7
2023-04-27T22:15:46.822Z,17.6
2023-04-27T22:21:38.908Z,17.6
2023-04-27T22:27:38.715Z,17.5
2023-04-27T22:33:36.122Z,17.4
2023-04-27T22:39:34.878Z,17.4
2023-04-27T22:45:25.465Z,17.3
2023-04-27T22:51:16.782Z,17.3
2023-04-27T22:57:07.837Z,17.3
2023-04-27T23:02:59.535Z,17.2
2023-04-27T23:08:52.071Z,17.2
2023-04-27T23:14:44.004Z,17.1
2023-04-27T23:20:41.819Z,17.1
2023-04-27T23:26:33.515Z,17.1
2023-04-27T23:32:25.313Z,17.1
2023-04-27T23:49:29.125Z,16.9
2023-04-27T23:55:04.881Z,16.9
